Quick Links (Output Below):   Max & Min Temps   /   Climate Reports   /   Zone Forecasts
River Forecasts   /   Forestry Forecasts   /   Aviation Forecasts   /   Radars   /   Features

Terminal Aerodrome Forecast (Little Rock)

Pick a Site:
Arkadelphia | El Dorado | Fayetteville | Fort Smith | Harrison | Highfill | Hot Springs | Jonesboro
Little Rock | Monticello | Mountain Home | Pine Bluff | Texarkana
 Forecast 

KLIT 290635Z 2906/3006 VRB04KT P6SM SKC
     FM291500 06006KT P6SM SCT250=


 Latest METARs (Observations) 
How to Decode METARs
06Z KLIT 290553Z 00000KT 10SM CLR 23/18 A3007 RMK AO2 SLP180 T02280183
         10289 20228 403170228 57004
         
05Z KLIT 290453Z 00000KT 10SM FEW075 23/18 A3007 RMK AO2 SLP182
         T02280183
         
04Z KLIT 290353Z 00000KT 10SM CLR 23/18 A3007 RMK AO2 SLP183
         T02330183
         
03Z KLIT 290253Z 00000KT 10SM SCT250 24/17 A3008 RMK AO2 SLP184
         T02440172 51016
         
02Z KLIT 290153Z 00000KT 10SM SCT250 26/17 A3007 RMK AO2 SLP181
         T02560172
         
01Z KLIT 290053Z 36004KT 10SM BKN250 27/16 A3005 RMK AO2 SLP173
         T02670161
         
00Z KLIT 282353Z 36008KT 10SM FEW060 BKN250 29/16 A3003 RMK AO2 SLP168
         T02890156 10317 20289 56013
         
***** Today's Observations (Above) *****


23Z KLIT 282253Z 36010KT 10SM SCT060 BKN250 31/16 A3004 RMK AO2 SLP171
         T03060156
         
22Z KLIT 282153Z 36007KT 10SM FEW060 SCT250 31/16 A3006 RMK AO2 SLP178
         T03110156
         
21Z KLIT 282053Z 34010KT 10SM FEW060 SCT250 31/15 A3007 RMK AO2 SLP182
         T03110150 56013
         
***** Yesterday's Observations (Above) *****


Back to Main Page
http://www.srh.noaa.gov/lzk/qfcst.php

USA.gov is the U.S. government's official web portal to all federal, state and local government web resources and services.